Time;durP1;ratioP1;P1;durP2;ratioP2;P2;SDS_P1;SDS_P2;PMS_P1;PMS_P2;Temp;Humidity;BMP_temperature;BMP_pressure;BME280_temperature;BME280_humidity;BME280_pressure;Samples;Min_cycle;Max_cycle;Signal;HPM_P1;HPM_P2
2022/04/07 00:00:06;;;;;;;;;;;;;;;22.83;65.01;96016.38;586130;242;68562;-66
2022/04/07 00:02:34;;;;;;;;;;;;;;;22.83;66.04;96012.88;586142;242;65559;-67
2022/04/07 00:05:01;;;;;;;;;;;;;;;22.82;66.01;96020.13;586126;242;68804;-67
2022/04/07 00:07:29;;;;;;;;;;;;;;;22.81;66.69;96018.56;586142;242;68471;-67
2022/04/07 00:09:56;;;;;;;;;;;;;;;22.82;66.53;96017.45;586152;242;65275;-67
2022/04/07 00:12:24;;;;;;;;;;;;;;;22.81;67.23;96015.88;586151;242;66333;-67
2022/04/07 00:14:51;;;;;;;;;;;;;;;22.79;66.46;96006.56;586191;242;66480;-67
2022/04/07 00:17:19;;;;;;;;;;;;;;;22.80;66.64;95994.75;586131;242;63001;-67
2022/04/07 00:19:47;;;;;;;;;;;;;;;22.80;65.30;96000.10;586166;242;68889;-67
2022/04/07 00:22:15;;;;;;;;;;;;;;;22.79;66.33;96001.21;586081;242;68742;-67
2022/04/07 00:24:42;;;;;;;;;;;;;;;22.79;66.56;95990.50;586146;242;65321;-67
2022/04/07 00:27:10;;;;;;;;;;;;;;;22.80;66.37;95984.81;586140;242;68851;-67
2022/04/07 00:29:38;;;;;;;;;;;;;;;22.80;67.03;95984.03;586114;242;66479;-67
2022/04/07 00:32:07;;;;;;;;;;;;;;;22.79;67.46;95980.56;586136;242;63181;-67
2022/04/07 00:34:34;;;;;;;;;;;;;;;22.79;64.69;95971.75;586093;242;68864;-67
2022/04/07 00:37:02;;;;;;;;;;;;;;;22.79;67.21;95971.75;586098;242;68759;-67
2022/04/07 00:39:30;;;;;;;;;;;;;;;22.79;67.11;95966.39;586195;242;65161;-67
2022/04/07 00:41:57;;;;;;;;;;;;;;;22.76;66.10;95975.05;586077;242;68842;-67
2022/04/07 00:44:27;;;;;;;;;;;;;;;22.77;66.79;95955.97;586164;242;68521;-67
2022/04/07 00:46:54;;;;;;;;;;;;;;;22.76;67.10;95959.76;586103;242;65377;-67
2022/04/07 00:49:22;;;;;;;;;;;;;;;22.77;66.36;95960.54;586127;242;68843;-67
2022/04/07 00:51:49;;;;;;;;;;;;;;;22.76;66.89;95954.40;586148;242;69092;-67
2022/04/07 00:54:18;;;;;;;;;;;;;;;22.75;66.70;95944.80;586087;242;62921;-67
2022/04/07 00:56:46;;;;;;;;;;;;;;;22.75;66.94;95943.98;586121;242;68834;-67
2022/04/07 00:59:15;;;;;;;;;;;;;;;22.75;66.45;95934.08;586129;242;66683;-67
2022/04/07 01:01:43;;;;;;;;;;;;;;;22.76;66.17;95938.33;586122;242;63201;-67
2022/04/07 01:04:10;;;;;;;;;;;;;;;22.74;66.64;95931.70;586137;242;66853;-67
2022/04/07 01:06:39;;;;;;;;;;;;;;;22.74;66.86;95926.34;586171;242;66527;-67
2022/04/07 01:09:07;;;;;;;;;;;;;;;22.75;67.33;95927.91;586166;242;65266;-67
2022/04/07 01:11:35;;;;;;;;;;;;;;;22.74;64.99;95934.38;586131;242;68194;-67
2022/04/07 01:14:03;;;;;;;;;;;;;;;22.73;67.41;95925.56;586140;242;66620;-67
2022/04/07 01:16:32;;;;;;;;;;;;;;;22.71;67.36;95925.06;586133;242;65630;-67
2022/04/07 01:19:00;;;;;;;;;;;;;;;22.72;68.90;95918.60;586223;242;68854;-67
2022/04/07 01:21:28;;;;;;;;;;;;;;;22.71;66.41;95925.06;583225;242;66444;-67
2022/04/07 01:24:05;;;;;;;;;;;;;;;22.72;65.92;95917.81;575571;246;65440;-67
2022/04/07 01:26:37;;;;;;;;;;;;;;;22.71;66.81;95919.71;575566;246;66439;-65
2022/04/07 01:29:04;;;;;;;;;;;;;;;22.72;65.50;95917.81;575554;244;68528;-65
2022/04/07 01:31:32;;;;;;;;;;;;;;;22.72;67.03;95913.25;575590;246;65387;-65
2022/04/07 01:34:00;;;;;;;;;;;;;;;22.71;67.75;95921.61;575603;246;66424;-65
2022/04/07 01:36:29;;;;;;;;;;;;;;;22.69;67.41;95915.76;575548;246;66594;-66
2022/04/07 01:38:59;;;;;;;;;;;;;;;22.70;65.18;95914.65;575559;246;65655;-66
2022/04/07 01:41:27;;;;;;;;;;;;;;;22.70;66.86;95910.11;575556;246;66524;-66
2022/04/07 01:43:56;;;;;;;;;;;;;;;22.68;65.96;95898.91;575539;246;65370;-66
2022/04/07 01:46:24;;;;;;;;;;;;;;;22.68;66.02;95895.45;575572;246;65271;-66
2022/04/07 01:48:52;;;;;;;;;;;;;;;22.68;67.95;95888.20;575582;246;66406;-66
2022/04/07 01:51:20;;;;;;;;;;;;;;;22.68;68.07;95882.84;575551;246;68544;-66
2022/04/07 01:53:48;;;;;;;;;;;;;;;22.68;67.48;95872.13;575569;246;63298;-65
2022/04/07 01:56:17;;;;;;;;;;;;;;;22.65;66.06;95862.03;575561;246;66401;-65
2022/04/07 01:58:44;;;;;;;;;;;;;;;22.68;66.81;95868.66;575581;246;66207;-65
2022/04/07 02:01:12;;;;;;;;;;;;;;;22.65;65.92;95854.00;575581;246;63391;-65
2022/04/07 02:03:41;;;;;;;;;;;;;;;22.67;67.90;95846.45;575559;246;68481;-65
2022/04/07 02:06:12;;;;;;;;;;;;;;;22.65;67.02;95842.50;575537;246;66743;-65
2022/04/07 02:08:39;;;;;;;;;;;;;;;22.67;68.03;95837.61;575588;246;65312;-65
2022/04/07 02:11:07;;;;;;;;;;;;;;;22.66;67.59;95833.36;575564;246;68598;-65
2022/04/07 02:13:34;;;;;;;;;;;;;;;22.65;68.06;95826.44;575591;246;68456;-65
2022/04/07 02:16:02;;;;;;;;;;;;;;;22.65;67.82;95829.12;575581;246;65453;-65
2022/04/07 02:18:30;;;;;;;;;;;;;;;22.64;67.42;95816.81;575512;246;68510;-65
2022/04/07 02:20:57;;;;;;;;;;;;;;;22.63;68.11;95816.02;576225;242;66472;-65
2022/04/07 02:23:26;;;;;;;;;;;;;;;22.63;68.34;95807.20;586189;242;63201;-65
2022/04/07 02:25:54;;;;;;;;;;;;;;;22.62;67.43;95803.75;586154;242;68264;-65
2022/04/07 02:28:23;;;;;;;;;;;;;;;22.63;66.95;95793.81;586188;242;68532;-65
2022/04/07 02:30:51;;;;;;;;;;;;;;;22.63;67.37;95791.14;586151;242;65315;-65
2022/04/07 02:33:18;;;;;;;;;;;;;;;22.60;67.49;95790.66;586146;242;66686;-65
2022/04/07 02:35:46;;;;;;;;;;;;;;;22.62;67.38;95785.00;586178;242;68544;-65
2022/04/07 02:38:13;;;;;;;;;;;;;;;22.63;68.57;95775.86;586200;242;65178;-65
2022/04/07 02:40:41;;;;;;;;;;;;;;;22.61;66.28;95772.70;586142;242;68340;-65
2022/04/07 02:43:08;;;;;;;;;;;;;;;22.61;68.58;95772.70;586150;242;68497;-65
2022/04/07 02:45:36;;;;;;;;;;;;;;;22.60;67.22;95766.55;586130;242;62894;-65
2022/04/07 02:48:03;;;;;;;;;;;;;;;22.60;67.89;95755.84;586174;242;66448;-65
2022/04/07 02:50:31;;;;;;;;;;;;;;;22.61;67.32;95753.95;586180;239;66464;-65
2022/04/07 02:52:58;;;;;;;;;;;;;;;22.60;67.41;95749.70;586151;242;63042;-65
2022/04/07 02:55:27;;;;;;;;;;;;;;;22.61;67.77;95746.70;586130;242;66377;-65
2022/04/07 02:57:56;;;;;;;;;;;;;;;22.60;68.49;95734.42;586175;242;68537;-65
2022/04/07 03:00:23;;;;;;;;;;;;;;;22.59;68.25;95732.08;586181;242;66386;-65
2022/04/07 03:02:51;;;;;;;;;;;;;;;22.57;68.22;95718.98;586198;242;68475;-65
2022/04/07 03:05:18;;;;;;;;;;;;;;;22.58;68.42;95725.13;586213;242;68357;-65
2022/04/07 03:07:46;;;;;;;;;;;;;;;22.57;68.40;95718.20;586116;242;65173;-65
2022/04/07 03:10:15;;;;;;;;;;;;;;;22.57;69.38;95702.92;586158;242;68409;-65
2022/04/07 03:12:42;;;;;;;;;;;;;;;22.57;68.69;95705.60;586189;242;68179;-65
2022/04/07 03:15:10;;;;;;;;;;;;;;;22.55;67.53;95713.15;586147;242;65384;-65
2022/04/07 03:17:38;;;;;;;;;;;;;;;22.56;67.85;95720.09;586209;242;68580;-65
2022/04/07 03:20:07;;;;;;;;;;;;;;;22.57;68.63;95720.88;586100;242;68665;-65
2022/04/07 03:22:34;;;;;;;;;;;;;;;22.55;68.65;95709.69;578340;242;65424;-65
2022/04/07 03:25:02;;;;;;;;;;;;;;;22.56;67.51;95711.25;575577;244;68488;-65
2022/04/07 03:27:29;;;;;;;;;;;;;;;22.54;68.09;95698.20;575547;246;67065;-65
2022/04/07 03:29:57;;;;;;;;;;;;;;;22.54;68.17;95692.06;575600;246;63171;-65
2022/04/07 03:32:24;;;;;;;;;;;;;;;22.53;68.66;95701.17;575574;246;66332;-65
2022/04/07 03:34:52;;;;;;;;;;;;;;;22.53;67.34;95706.53;575505;244;68552;-65
2022/04/07 03:37:20;;;;;;;;;;;;;;;22.53;68.40;95704.63;575580;246;63303;-65
2022/04/07 03:39:49;;;;;;;;;;;;;;;22.53;69.02;95706.53;575550;246;65853;-65
2022/04/07 03:42:17;;;;;;;;;;;;;;;22.52;68.85;95695.03;575563;246;68629;-65
2022/04/07 03:44:45;;;;;;;;;;;;;;;22.52;68.43;95686.22;575534;246;65159;-65
2022/04/07 03:47:12;;;;;;;;;;;;;;;22.51;67.27;95684.66;575519;246;68818;-65
2022/04/07 03:49:40;;;;;;;;;;;;;;;22.52;68.79;95684.33;575542;246;66205;-65
2022/04/07 03:52:08;;;;;;;;;;;;;;;22.51;68.04;95672.05;575549;246;63908;-65
2022/04/07 03:54:35;;;;;;;;;;;;;;;22.51;68.82;95673.95;575589;246;66204;-65
2022/04/07 03:57:03;;;;;;;;;;;;;;;22.52;68.16;95672.84;575521;246;66615;-65
2022/04/07 03:59:33;;;;;;;;;;;;;;;22.51;66.93;95665.92;575521;246;63294;-65
2022/04/07 04:01:59;;;;;;;;;;;;;;;22.51;68.66;95673.95;575546;244;66120;-65
2022/04/07 04:04:27;;;;;;;;;;;;;;;22.53;68.42;95663.69;575569;246;66273;-65
2022/04/07 04:06:54;;;;;;;;;;;;;;;22.50;69.03;95661.64;575611;246;63264;-65
2022/04/07 04:09:22;;;;;;;;;;;;;;;22.51;68.27;95645.28;575582;246;65936;-65
2022/04/07 04:11:49;;;;;;;;;;;;;;;22.48;67.98;95637.88;575550;246;66101;-65
2022/04/07 04:14:17;;;;;;;;;;;;;;;22.48;67.69;95635.20;575555;246;64091;-65
2022/04/07 04:16:45;;;;;;;;;;;;;;;22.49;67.20;95627.95;575576;246;66268;-65
2022/04/07 04:19:12;;;;;;;;;;;;;;;22.49;68.33;95633.31;575623;246;66184;-65
2022/04/07 04:21:40;;;;;;;;;;;;;;;22.49;68.13;95625.28;575529;245;63310;-65
2022/04/07 04:24:07;;;;;;;;;;;;;;;22.49;68.20;95634.09;575555;246;65983;-65
2022/04/07 04:26:35;;;;;;;;;;;;;;;22.48;66.68;95639.74;575565;246;66182;-65
2022/04/07 04:29:02;;;;;;;;;;;;;;;22.49;67.97;95615.35;575512;246;63314;-65
2022/04/07 04:31:30;;;;;;;;;;;;;;;22.48;69.07;95602.27;575605;246;66530;-65
2022/04/07 04:33:57;;;;;;;;;;;;;;;22.48;68.67;95594.23;575477;246;66679;-65
2022/04/07 04:36:25;;;;;;;;;;;;;;;22.48;69.28;95599.59;575567;246;63119;-65
2022/04/07 04:38:52;;;;;;;;;;;;;;;22.46;68.78;95593.78;575535;246;66390;-65
2022/04/07 04:41:20;;;;;;;;;;;;;;;22.45;66.95;95606.36;575483;246;66568;-65
2022/04/07 04:43:47;;;;;;;;;;;;;;;22.45;67.77;95606.36;575595;246;63160;-65
2022/04/07 04:46:15;;;;;;;;;;;;;;;22.46;68.22;95604.49;575555;246;66296;-65
2022/04/07 04:48:42;;;;;;;;;;;;;;;22.44;68.34;95583.38;575512;246;66325;-65
2022/04/07 04:51:10;;;;;;;;;;;;;;;22.45;68.50;95602.90;575574;246;63307;-65
2022/04/07 04:53:37;;;;;;;;;;;;;;;22.44;68.05;95590.63;575574;246;68316;-65
2022/04/07 04:56:05;;;;;;;;;;;;;;;22.43;67.84;95594.41;575574;246;68536;-65
2022/04/07 04:58:32;;;;;;;;;;;;;;;22.45;68.15;95592.97;575574;246;65329;-65
2022/04/07 05:01:00;;;;;;;;;;;;;;;22.42;66.12;95587.47;575559;246;69009;-65
2022/04/07 05:03:27;;;;;;;;;;;;;;;22.42;67.76;95590.92;575560;246;68507;-65
2022/04/07 05:05:55;;;;;;;;;;;;;;;22.43;68.75;95581.03;575556;246;65321;-65
2022/04/07 05:08:22;;;;;;;;;;;;;;;22.43;68.17;95573.00;575560;246;68463;-65
2022/04/07 05:10:50;;;;;;;;;;;;;;;22.42;69.27;95568.73;575550;244;66553;-65
2022/04/07 05:13:17;;;;;;;;;;;;;;;22.41;68.67;95561.81;575549;246;63358;-65
2022/04/07 05:15:45;;;;;;;;;;;;;;;22.43;68.61;95556.94;575591;246;66774;-65
2022/04/07 05:18:12;;;;;;;;;;;;;;;22.43;69.14;95548.91;575528;246;66523;-65
2022/04/07 05:20:40;;;;;;;;;;;;;;;22.39;65.88;95541.48;575549;246;63199;-65
2022/04/07 05:23:07;;;;;;;;;;;;;;;22.42;69.04;95534.72;585699;242;67572;-67
2022/04/07 05:25:35;;;;;;;;;;;;;;;22.41;69.07;95533.16;586121;242;68324;-66
2022/04/07 05:28:02;;;;;;;;;;;;;;;22.41;68.54;95524.34;586131;242;63139;-66
2022/04/07 05:30:30;;;;;;;;;;;;;;;22.41;68.67;95540.41;586117;242;66619;-66
2022/04/07 05:32:57;;;;;;;;;;;;;;;22.39;68.03;95521.97;586118;239;68810;-67
2022/04/07 05:35:28;;;;;;;;;;;;;;;22.41;69.47;95522.45;586158;242;65310;-66
2022/04/07 05:37:59;;;;;;;;;;;;;;;22.38;69.20;95529.22;586150;242;53496;-67
2022/04/07 05:40:27;;;;;;;;;;;;;;;22.37;67.12;95516.95;586169;242;68294;-66
2022/04/07 05:42:56;;;;;;;;;;;;;;;22.38;69.29;95507.80;586037;242;65403;-66
2022/04/07 05:45:24;;;;;;;;;;;;;;;22.37;69.01;95503.56;586157;242;68902;-65
2022/04/07 05:47:52;;;;;;;;;;;;;;;22.39;68.71;95504.02;585981;242;69111;-64
2022/04/07 05:50:20;;;;;;;;;;;;;;;22.37;68.72;95497.40;585533;242;65294;-66
2022/04/07 05:52:48;;;;;;;;;;;;;;;22.37;68.75;95482.16;587444;239;69023;-66
2022/04/07 05:55:16;;;;;;;;;;;;;;;22.36;69.66;95490.48;592451;239;66889;-65
2022/04/07 05:57:44;;;;;;;;;;;;;;;22.32;68.14;95482.31;592327;239;63297;-69
2022/04/07 06:00:13;;;;;;;;;;;;;;;22.32;67.75;95497.59;592360;239;68927;-66
2022/04/07 06:02:41;;;;;;;;;;;;;;;22.29;66.75;95487.48;592478;239;68726;-66
2022/04/07 06:05:10;;;;;;;;;;;;;;;22.28;67.05;95476.00;592470;239;65120;-65
2022/04/07 06:07:38;;;;;;;;;;;;;;;22.28;67.16;95502.77;592425;239;68636;-66
2022/04/07 06:10:06;;;;;;;;;;;;;;;22.26;66.31;95478.23;592453;239;68765;-66
2022/04/07 06:12:33;;;;;;;;;;;;;;;22.27;66.86;95466.41;592422;239;65256;-64
2022/04/07 06:15:01;;;;;;;;;;;;;;;22.26;65.57;95483.58;592495;239;66965;-64
2022/04/07 06:17:34;;;;;;;;;;;;;;;22.24;64.96;95469.72;592416;239;66648;-64
2022/04/07 06:20:03;;;;;;;;;;;;;;;22.23;65.26;95483.41;592426;239;63299;-67
2022/04/07 06:22:30;;;;;;;;;;;;;;;22.21;64.93;95469.55;588155;239;68730;-67
2022/04/07 06:24:58;;;;;;;;;;;;;;;22.20;63.92;95463.41;586436;242;68762;-67
2022/04/07 06:27:27;;;;;;;;;;;;;;;22.21;63.54;95469.55;586369;242;65350;-67
2022/04/07 06:29:56;;;;;;;;;;;;;;;22.20;62.31;95454.61;586179;242;68875;-63
2022/04/07 06:32:24;;;;;;;;;;;;;;;22.20;62.17;95447.36;586417;242;66559;-67
2022/04/07 06:34:51;;;;;;;;;;;;;;;22.22;63.31;95445.16;586297;242;63267;-67
2022/04/07 06:37:19;;;;;;;;;;;;;;;22.22;62.13;95434.45;586356;242;68871;-67
2022/04/07 06:39:46;;;;;;;;;;;;;;;22.23;62.71;95441.38;586417;242;66721;-67
2022/04/07 06:42:14;;;;;;;;;;;;;;;22.23;62.78;95429.89;586370;242;63216;-68
2022/04/07 06:44:41;;;;;;;;;;;;;;;22.23;62.93;95424.53;586433;242;66836;-66
2022/04/07 06:47:09;;;;;;;;;;;;;;;22.23;63.73;95419.19;586339;242;66717;-67
2022/04/07 06:49:39;;;;;;;;;;;;;;;22.22;62.73;95412.27;579786;242;63027;-67
2022/04/07 06:52:07;;;;;;;;;;;;;;;22.23;64.29;95403.91;575375;246;66529;-67
2022/04/07 06:54:36;;;;;;;;;;;;;;;22.23;63.22;95411.94;575474;245;49773;-67
2022/04/07 06:57:04;;;;;;;;;;;;;;;22.23;62.68;95416.51;575303;246;63403;-67
2022/04/07 06:59:32;;;;;;;;;;;;;;;22.22;63.29;95413.05;575473;246;68819;-67
2022/04/07 07:02:01;;;;;;;;;;;;;;;22.22;62.25;95417.63;575291;245;66814;-67
2022/04/07 07:04:32;;;;;;;;;;;;;;;22.23;63.80;95414.61;575383;246;65324;-66
2022/04/07 07:06:57;;;;;;;;;;;;;;;22.21;63.54;95416.84;575469;244;68905;-66
2022/04/07 07:09:25;;;;;;;;;;;;;;;22.23;64.68;95419.19;575339;246;66644;-67
2022/04/07 07:11:53;;;;;;;;;;;;;;;22.22;63.60;95431.00;575464;246;65604;-67
2022/04/07 07:14:20;;;;;;;;;;;;;;;22.23;64.07;95413.83;575480;246;68672;-67
2022/04/07 07:16:48;;;;;;;;;;;;;;;22.21;63.81;95416.84;575420;246;68836;-68
2022/04/07 07:19:18;;;;;;;;;;;;;;;22.22;64.34;95405.03;575497;246;63110;-67
2022/04/07 07:21:45;;;;;;;;;;;;;;;22.22;64.09;95402.34;579570;242;68779;-67
2022/04/07 07:24:13;;;;;;;;;;;;;;;22.22;64.37;95393.54;586015;242;67408;-67
2022/04/07 07:26:40;;;;;;;;;;;;;;;22.22;64.53;95397.00;586030;242;65101;-63
2022/04/07 07:29:08;;;;;;;;;;;;;;;22.21;64.36;95387.41;586006;242;69108;-66
2022/04/07 07:31:37;;;;;;;;;;;;;;;22.20;64.05;95372.44;585998;242;68705;-66
2022/04/07 07:34:04;;;;;;;;;;;;;;;22.20;62.56;95363.63;585976;242;63346;-67
2022/04/07 07:36:32;;;;;;;;;;;;;;;22.19;62.39;95376.23;586004;242;66941;-69
2022/04/07 07:38:59;;;;;;;;;;;;;;;22.20;63.90;95359.06;586077;242;68763;-59
2022/04/07 07:41:27;;;;;;;;;;;;;;;22.20;63.13;95364.41;586050;242;64531;-66
2022/04/07 07:43:54;;;;;;;;;;;;;;;22.19;63.17;95373.55;586045;242;68794;-67
2022/04/07 07:46:22;;;;;;;;;;;;;;;22.18;63.17;95369.31;586092;242;68839;-67
2022/04/07 07:48:49;;;;;;;;;;;;;;;22.19;62.65;95373.55;586057;242;65362;-66
2022/04/07 07:51:17;;;;;;;;;;;;;;;22.20;62.87;95382.36;585943;242;68883;-71
2022/04/07 07:53:45;;;;;;;;;;;;;;;22.19;63.10;95386.16;585769;242;69666;-71
2022/04/07 07:56:13;;;;;;;;;;;;;;;22.19;62.86;95399.53;586074;242;65478;-70
2022/04/07 07:58:41;;;;;;;;;;;;;;;22.17;62.99;95399.80;586071;242;68735;-69
2022/04/07 08:01:08;;;;;;;;;;;;;;;22.18;62.08;95404.10;586058;242;68495;-71
2022/04/07 08:03:41;;;;;;;;;;;;;;;22.18;63.07;95401.42;586005;242;65183;-71
2022/04/07 08:06:06;;;;;;;;;;;;;;;22.17;62.57;95399.80;585853;242;68679;-70
2022/04/07 08:08:33;;;;;;;;;;;;;;;22.18;62.41;95393.40;586127;242;65908;-71
2022/04/07 08:11:01;;;;;;;;;;;;;;;22.19;63.90;95386.94;586126;242;65416;-69
2022/04/07 08:13:29;;;;;;;;;;;;;;;22.20;63.88;95398.42;586010;242;68578;-70
2022/04/07 08:15:56;;;;;;;;;;;;;;;22.20;63.54;95399.20;586025;242;68536;-71
2022/04/07 08:18:24;;;;;;;;;;;;;;;22.19;63.86;95392.28;586032;242;65569;-70
2022/04/07 08:20:51;;;;;;;;;;;;;;;22.20;63.05;95393.84;585882;242;68393;-71
2022/04/07 08:23:19;;;;;;;;;;;;;;;22.20;63.29;95387.72;586109;242;68492;-70
2022/04/07 08:25:46;;;;;;;;;;;;;;;22.20;64.08;95383.14;586047;242;62824;-68
2022/04/07 08:28:15;;;;;;;;;;;;;;;22.21;64.55;95386.59;586014;242;66512;-65
2022/04/07 08:30:43;;;;;;;;;;;;;;;22.21;64.33;95376.70;586078;242;68805;-65
2022/04/07 08:33:10;;;;;;;;;;;;;;;22.21;64.30;95381.25;586108;242;65379;-65
2022/04/07 08:35:38;;;;;;;;;;;;;;;22.20;63.71;95377.80;586055;242;68590;-64
2022/04/07 08:38:05;;;;;;;;;;;;;;;22.21;64.50;95371.36;586142;242;68727;-64
2022/04/07 08:40:34;;;;;;;;;;;;;;;22.22;63.97;95369.45;586098;242;65367;-63
2022/04/07 08:43:01;;;;;;;;;;;;;;;22.22;64.84;95380.95;585937;242;69097;-63
2022/04/07 08:45:30;;;;;;;;;;;;;;;22.22;64.64;95378.27;586095;242;68867;-63
2022/04/07 08:47:58;;;;;;;;;;;;;;;22.23;64.48;95365.67;586090;242;65437;-64
2022/04/07 08:50:27;;;;;;;;;;;;;;;22.23;64.71;95369.13;586104;242;68906;-62
2022/04/07 08:52:55;;;;;;;;;;;;;;;22.24;64.94;95373.39;586130;242;68759;-64
2022/04/07 08:55:22;;;;;;;;;;;;;;;22.24;65.01;95362.69;586051;242;65387;-64
2022/04/07 08:57:51;;;;;;;;;;;;;;;22.25;64.36;95369.59;586015;242;69496;-63
2022/04/07 09:00:20;;;;;;;;;;;;;;;22.25;65.41;95366.14;586101;242;68427;-63
2022/04/07 09:02:47;;;;;;;;;;;;;;;22.25;65.40;95361.57;586100;242;65623;-68
2022/04/07 09:05:17;;;;;;;;;;;;;;;22.25;65.62;95366.92;585912;242;66643;-65
2022/04/07 09:07:45;;;;;;;;;;;;;;;22.27;61.99;95354.02;585863;242;68521;-67
2022/04/07 09:10:13;;;;;;;;;;;;;;;22.29;63.86;95373.23;585988;242;65335;-67
2022/04/07 09:12:40;;;;;;;;;;;;;;;22.30;64.77;95382.03;586112;242;68721;-68
2022/04/07 09:15:08;;;;;;;;;;;;;;;22.32;64.70;95380.61;586101;242;66630;-67
2022/04/07 09:17:37;;;;;;;;;;;;;;;22.32;64.99;95382.51;586038;242;65594;-67
2022/04/07 09:20:06;;;;;;;;;;;;;;;22.33;65.82;95376.82;585537;242;66871;-68
2022/04/07 09:22:35;;;;;;;;;;;;;;;22.34;65.12;95373.06;585898;242;68524;-68
2022/04/07 09:25:06;;;;;;;;;;;;;;;22.33;65.86;95374.15;585947;242;63954;-68
2022/04/07 09:27:34;;;;;;;;;;;;;;;22.33;65.39;95371.47;586060;242;69456;-68
2022/04/07 09:30:08;;;;;;;;;;;;;;;22.34;65.79;95367.70;586099;242;66882;-67
2022/04/07 09:32:31;;;;;;;;;;;;;;;22.36;65.25;95368.16;585806;242;63218;-68
2022/04/07 09:34:59;;;;;;;;;;;;;;;22.37;65.94;95356.36;586026;242;66681;-67
2022/04/07 09:37:27;;;;;;;;;;;;;;;22.37;65.59;95364.39;585995;242;68750;-68
2022/04/07 09:40:06;;;;;;;;;;;;;;;22.38;65.70;95376.66;586042;242;65335;-68
2022/04/07 09:42:34;;;;;;;;;;;;;;;22.39;65.68;95375.54;586056;242;68927;-67
2022/04/07 09:45:02;;;;;;;;;;;;;;;22.40;66.08;95381.70;586055;242;68731;-69
2022/04/07 09:47:38;;;;;;;;;;;;;;;22.42;65.73;95389.39;586033;242;65738;-67
2022/04/07 09:50:07;;;;;;;;;;;;;;;22.41;66.24;95379.81;574492;242;64987;-67
2022/04/07 09:52:34;;;;;;;;;;;;;;;22.41;66.17;95375.23;574405;242;68001;-68
2022/04/07 09:55:06;;;;;;;;;;;;;;;22.41;65.94;95382.48;585988;242;65322;-68
2022/04/07 09:57:34;;;;;;;;;;;;;;;22.43;65.96;95382.95;586050;242;66919;-67
2022/04/07 10:00:03;;;;;;;;;;;;;;;22.42;65.62;95384.05;585806;242;68876;-68
2022/04/07 10:02:31;;;;;;;;;;;;;;;22.42;66.05;95390.17;586063;242;66196;-68
2022/04/07 10:05:01;;;;;;;;;;;;;;;22.44;65.68;95382.63;586003;242;66391;-68
2022/04/07 10:07:29;;;;;;;;;;;;;;;22.44;66.12;95389.87;585946;242;68658;-68
2022/04/07 10:09:57;;;;;;;;;;;;;;;22.45;66.16;95394.89;586123;242;63367;-68
2022/04/07 10:12:25;;;;;;;;;;;;;;;22.45;65.54;95399.46;586060;242;66738;-68
2022/04/07 10:14:53;;;;;;;;;;;;;;;22.46;66.10;95398.37;586003;242;68702;-68
2022/04/07 10:17:21;;;;;;;;;;;;;;;22.47;66.24;95397.27;586087;242;63049;-68
2022/04/07 10:19:53;;;;;;;;;;;;;;;22.48;65.78;95406.85;586016;242;68838;-68
2022/04/07 10:22:40;;;;;;;;;;;;;;;22.48;66.52;95413.02;579203;240;66510;-68
2022/04/07 10:25:08;;;;;;;;;;;;;;;22.47;66.31;95411.42;575518;246;63172;-68
2022/04/07 10:27:46;;;;;;;;;;;;;;;22.48;66.16;95420.23;574952;246;66391;-68
2022/04/07 10:30:15;;;;;;;;;;;;;;;22.49;65.91;95424.50;575360;246;68606;-68
2022/04/07 10:32:45;;;;;;;;;;;;;;;22.50;66.79;95415.36;575321;246;65597;-69
2022/04/07 10:35:14;;;;;;;;;;;;;;;22.51;66.84;95419.63;575376;246;68904;-62
2022/04/07 10:37:46;;;;;;;;;;;;;;;22.51;66.38;95438.36;574599;245;68545;-69
2022/04/07 10:40:33;;;;;;;;;;;;;;;22.51;65.92;95424.98;575445;246;65552;-68
2022/04/07 10:43:10;;;;;;;;;;;;;;;22.51;65.98;95443.72;575368;246;68878;-70
2022/04/07 10:45:39;;;;;;;;;;;;;;;22.51;65.89;95459.78;575415;246;69016;-65
2022/04/07 10:48:28;;;;;;;;;;;;;;;22.51;65.64;95462.45;575458;246;65325;-61
2022/04/07 10:51:04;;;;;;;;;;;;;;;22.51;65.16;95462.45;575380;246;68870;-66
2022/04/07 10:53:33;;;;;;;;;;;;;;;22.51;65.05;95459.78;575459;246;66640;-66
2022/04/07 10:56:06;;;;;;;;;;;;;;;22.49;64.04;95476.14;575511;246;67601;-67
2022/04/07 10:58:41;;;;;;;;;;;;;;;22.51;64.85;95484.66;575458;246;68998;-65
2022/04/07 11:01:15;;;;;;;;;;;;;;;22.52;64.08;95493.47;575470;246;68715;-67
2022/04/07 11:03:45;;;;;;;;;;;;;;;22.51;63.65;95511.42;575252;246;65336;-68
2022/04/07 11:06:14;;;;;;;;;;;;;;;22.51;62.53;95516.78;575062;246;68668;-58
2022/04/07 11:08:43;;;;;;;;;;;;;;;22.52;63.27;95518.34;575273;245;66889;-67
2022/04/07 11:11:10;;;;;;;;;;;;;;;22.55;61.95;95522.28;575342;246;63021;-65
2022/04/07 11:13:42;;;;;;;;;;;;;;;22.54;63.91;95532.20;575386;246;66893;-64
2022/04/07 11:16:17;;;;;;;;;;;;;;;22.55;63.16;95533.77;575493;246;68765;-67
2022/04/07 11:19:02;;;;;;;;;;;;;;;22.57;63.04;95533.47;575367;245;62944;-65
2022/04/07 11:21:45;;;;;;;;;;;;;;;22.60;64.52;95543.54;578540;242;47516;-74
2022/04/07 11:24:17;;;;;;;;;;;;;;;22.59;63.07;95540.08;586093;242;68602;-68
2022/04/07 11:26:45;;;;;;;;;;;;;;;22.61;63.26;95537.85;585884;242;63049;-74
2022/04/07 11:29:18;;;;;;;;;;;;;;;22.63;63.86;95540.22;586181;242;66587;-71
2022/04/07 11:31:48;;;;;;;;;;;;;;;22.63;62.53;95548.25;585407;242;68636;-69
2022/04/07 11:34:33;;;;;;;;;;;;;;;22.65;61.71;95543.38;586063;242;65453;-71
2022/04/07 11:37:02;;;;;;;;;;;;;;;22.67;60.76;95543.86;586059;242;68709;-73
2022/04/07 11:39:32;;;;;;;;;;;;;;;22.72;62.08;95545.56;586039;242;68592;-64
2022/04/07 11:42:00;;;;;;;;;;;;;;;22.72;58.33;95542.89;586067;242;65500;-66
2022/04/07 11:44:28;;;;;;;;;;;;;;;22.76;60.35;95544.63;586124;242;66650;-64
2022/04/07 11:46:56;;;;;;;;;;;;;;;22.78;60.26;95547.78;586005;242;68783;-64
2022/04/07 11:49:24;;;;;;;;;;;;;;;22.79;58.18;95535.95;586032;242;65381;-63
2022/04/07 11:51:52;;;;;;;;;;;;;;;22.83;59.76;95533.41;585754;242;66806;-63
2022/04/07 11:54:20;;;;;;;;;;;;;;;22.86;58.65;95540.02;585857;242;66294;-64
2022/04/07 11:56:48;;;;;;;;;;;;;;;22.88;59.21;95529.78;585938;242;65335;-62
2022/04/07 11:59:16;;;;;;;;;;;;;;;22.89;59.85;95526.80;586078;242;68982;-63
2022/04/07 12:01:46;;;;;;;;;;;;;;;22.92;59.44;95528.06;585968;242;69057;-69
2022/04/07 12:04:14;;;;;;;;;;;;;;;22.93;59.61;95522.36;585993;242;63325;-69
2022/04/07 12:06:47;;;;;;;;;;;;;;;22.95;59.10;95527.42;586062;242;68905;-70
2022/04/07 12:09:15;;;;;;;;;;;;;;;22.97;59.24;95520.67;586040;242;68773;-69
2022/04/07 12:11:43;;;;;;;;;;;;;;;22.99;58.95;95518.44;586061;242;63025;-69
2022/04/07 12:14:15;;;;;;;;;;;;;;;23.00;59.72;95513.89;586048;242;68862;-69
2022/04/07 12:16:46;;;;;;;;;;;;;;;23.01;58.79;95521.59;586026;242;68349;-69
2022/04/07 12:19:13;;;;;;;;;;;;;;;23.02;58.41;95512.43;586005;242;65514;-72
2022/04/07 12:21:52;;;;;;;;;;;;;;;23.05;57.84;95519.05;585969;242;67926;-72
2022/04/07 12:24:19;;;;;;;;;;;;;;;23.07;58.75;95505.34;585812;242;68411;-67
2022/04/07 12:26:48;;;;;;;;;;;;;;;23.08;58.30;95502.36;586054;242;65292;-68
2022/04/07 12:29:17;;;;;;;;;;;;;;;23.10;58.01;95502.02;586068;242;66786;-67
2022/04/07 12:31:44;;;;;;;;;;;;;;;23.11;58.62;95504.39;586061;242;68466;-66
2022/04/07 12:34:12;;;;;;;;;;;;;;;23.14;58.27;95505.64;586078;242;65310;-65
2022/04/07 12:36:41;;;;;;;;;;;;;;;23.16;58.70;95503.41;585948;242;68610;-68
2022/04/07 12:39:12;;;;;;;;;;;;;;;23.18;58.29;95496.63;585693;242;66570;-68
2022/04/07 12:41:41;;;;;;;;;;;;;;;23.19;58.60;95489.36;585758;242;65323;-66
2022/04/07 12:44:09;;;;;;;;;;;;;;;23.21;57.82;95485.25;585834;242;68863;-67
2022/04/07 12:46:53;;;;;;;;;;;;;;;23.22;58.32;95484.16;585948;242;68595;-65
2022/04/07 12:49:25;;;;;;;;;;;;;;;23.25;57.99;95486.20;585916;242;65317;-67
2022/04/07 12:52:04;;;;;;;;;;;;;;;23.28;57.89;95479.41;585905;242;66904;-66
2022/04/07 12:54:31;;;;;;;;;;;;;;;23.31;58.27;95475.30;586103;242;68825;-70